createdAt,value
2019-02-09T00:01:08.401Z,7.97
2019-02-09T00:03:37.738Z,12.30
2019-02-09T00:06:07.470Z,7.03
2019-02-09T00:08:36.776Z,5.47
2019-02-09T00:11:07.905Z,6.67
2019-02-09T00:13:37.122Z,4.90
2019-02-09T00:16:06.804Z,5.87
2019-02-09T00:18:36.147Z,5.57
2019-02-09T00:21:05.777Z,5.13
2019-02-09T00:23:35.085Z,5.90
2019-02-09T00:26:04.516Z,5.20
2019-02-09T00:28:33.850Z,4.80
2019-02-09T00:31:02.978Z,4.83
2019-02-09T00:33:32.174Z,5.20
2019-02-09T00:36:01.414Z,6.60
2019-02-09T00:38:30.577Z,7.53
2019-02-09T00:40:59.774Z,4.27
2019-02-09T00:43:29.035Z,5.87
2019-02-09T00:45:58.182Z,4.63
2019-02-09T00:48:27.377Z,6.20
2019-02-09T00:50:56.659Z,5.77
2019-02-09T00:53:25.857Z,5.63
2019-02-09T00:55:55.091Z,5.27
2019-02-09T00:58:24.278Z,7.23
2019-02-09T01:00:53.479Z,5.37
2019-02-09T01:03:22.737Z,7.63
2019-02-09T01:05:51.913Z,6.63
2019-02-09T01:08:21.127Z,6.37
2019-02-09T01:10:50.881Z,6.17
2019-02-09T01:13:20.147Z,5.80
2019-02-09T01:15:49.344Z,4.33
2019-02-09T01:18:18.443Z,4.07
2019-02-09T01:20:47.569Z,7.00
2019-02-09T01:23:16.848Z,5.17
2019-02-09T01:25:46.193Z,8.30
2019-02-09T01:28:15.984Z,4.87
2019-02-09T01:30:45.175Z,6.97
2019-02-09T01:33:14.354Z,6.20
2019-02-09T01:35:43.586Z,4.10
2019-02-09T01:38:13.044Z,4.90
2019-02-09T01:40:42.184Z,3.10
2019-02-09T01:43:11.357Z,6.23
2019-02-09T01:45:40.735Z,11.50
2019-02-09T01:48:09.865Z,11.20
2019-02-09T01:50:39.118Z,8.67
2019-02-09T01:53:08.339Z,6.63
2019-02-09T01:55:37.476Z,8.80
2019-02-09T01:58:06.635Z,5.57
2019-02-09T02:00:37.297Z,6.17
2019-02-09T02:03:06.734Z,7.70
2019-02-09T02:05:36.082Z,8.77
2019-02-09T02:08:05.664Z,7.10
2019-02-09T02:10:37.746Z,7.83
2019-02-09T02:13:09.053Z,6.97
2019-02-09T02:15:39.130Z,5.80
2019-02-09T02:18:09.062Z,7.27
2019-02-09T02:20:40.142Z,5.03
2019-02-09T02:23:09.275Z,4.87
2019-02-09T02:25:38.487Z,4.23
2019-02-09T02:28:08.129Z,6.93
2019-02-09T02:30:37.946Z,4.20
2019-02-09T02:33:08.030Z,5.30
2019-02-09T02:35:37.639Z,7.60
2019-02-09T02:38:06.922Z,4.50
2019-02-09T02:40:37.145Z,6.40
2019-02-09T02:43:06.247Z,5.67
2019-02-09T02:45:35.439Z,5.27
2019-02-09T02:48:06.510Z,4.67
2019-02-09T02:50:36.090Z,6.50
2019-02-09T02:53:05.197Z,5.67
2019-02-09T02:55:34.426Z,6.60
2019-02-09T02:58:03.586Z,6.87
2019-02-09T03:00:33.163Z,4.37
2019-02-09T03:03:02.719Z,6.17
2019-02-09T03:05:31.900Z,3.90
2019-02-09T03:08:01.317Z,7.83
2019-02-09T03:10:30.570Z,7.27
2019-02-09T03:12:59.722Z,8.27
2019-02-09T03:15:29.961Z,6.50
2019-02-09T03:17:59.202Z,4.37
2019-02-09T03:20:28.420Z,4.17
2019-02-09T03:22:57.548Z,5.43
2019-02-09T03:25:28.638Z,5.13
2019-02-09T03:27:57.822Z,5.53
2019-02-09T03:30:27.250Z,5.00
2019-02-09T03:32:56.498Z,9.07
2019-02-09T03:35:25.938Z,5.87
2019-02-09T03:37:55.104Z,5.70
2019-02-09T03:40:24.976Z,8.07
2019-02-09T03:42:54.403Z,4.63
2019-02-09T03:45:28.380Z,4.43
2019-02-09T03:47:57.609Z,4.43
2019-02-09T03:50:28.729Z,8.30
2019-02-09T03:52:58.261Z,6.60
2019-02-09T03:55:27.427Z,6.23
2019-02-09T03:57:56.545Z,3.00
2019-02-09T04:00:27.238Z,4.33
2019-02-09T04:02:56.464Z,3.90
2019-02-09T04:05:25.737Z,4.10
2019-02-09T04:07:55.092Z,4.77
2019-02-09T04:10:25.834Z,4.90
2019-02-09T04:12:55.237Z,6.37
2019-02-09T04:21:35.914Z,3.43
2019-02-09T04:24:58.162Z,5.63
2019-02-09T04:31:07.581Z,4.90
2019-02-09T04:34:29.880Z,3.97
2019-02-09T04:40:39.210Z,5.00
2019-02-09T04:44:01.699Z,4.30
2019-02-09T04:50:11.377Z,3.53
2019-02-09T04:53:33.842Z,4.43
2019-02-09T04:59:43.122Z,3.87
2019-02-09T05:03:05.464Z,3.40
2019-02-09T05:09:14.967Z,3.47
2019-02-09T05:15:24.353Z,4.17
2019-02-09T05:17:53.709Z,3.30
2019-02-09T05:20:24.845Z,3.73
2019-02-09T05:22:54.648Z,2.90
2019-02-09T05:25:23.997Z,4.13
2019-02-09T05:27:53.332Z,4.43
2019-02-09T05:30:29.003Z,3.87
2019-02-09T05:33:00.471Z,5.87
2019-02-09T05:35:29.207Z,3.93
2019-02-09T05:37:58.633Z,3.70
2019-02-09T05:40:28.866Z,3.50
2019-02-09T05:42:58.073Z,3.57
2019-02-09T05:45:28.287Z,2.97
2019-02-09T05:47:57.501Z,4.30
2019-02-09T05:50:26.837Z,4.23
2019-02-09T05:52:55.930Z,3.60
2019-02-09T05:55:25.123Z,4.17
2019-02-09T05:57:54.302Z,3.63
2019-02-09T06:00:35.717Z,3.83
2019-02-09T06:03:05.894Z,2.83
2019-02-09T06:05:35.075Z,2.83
2019-02-09T06:08:04.780Z,2.60
2019-02-09T06:10:34.220Z,3.83
2019-02-09T06:13:03.462Z,3.43
2019-02-09T06:15:32.662Z,3.23
2019-02-09T06:18:01.971Z,2.80
2019-02-09T06:20:31.659Z,2.90
2019-02-09T06:23:00.855Z,2.70
2019-02-09T06:25:29.949Z,2.57
2019-02-09T06:27:59.112Z,2.10
2019-02-09T06:30:29.364Z,2.43
2019-02-09T06:32:58.608Z,2.00
2019-02-09T06:35:27.916Z,2.60
2019-02-09T06:37:57.505Z,3.60
2019-02-09T06:40:26.721Z,2.60
2019-02-09T06:42:56.899Z,3.07
2019-02-09T06:45:26.134Z,2.87
2019-02-09T06:48:16.181Z,4.23
2019-02-09T06:50:45.382Z,3.43
2019-02-09T06:53:14.595Z,2.30
2019-02-09T06:55:43.811Z,3.50
2019-02-09T06:58:13.105Z,3.10
2019-02-09T07:00:42.452Z,1.40
2019-02-09T07:03:11.571Z,2.20
2019-02-09T07:05:40.726Z,2.17
2019-02-09T07:08:10.086Z,1.83
2019-02-09T07:10:39.393Z,2.80
2019-02-09T07:13:08.605Z,4.27
2019-02-09T07:15:38.266Z,3.07
2019-02-09T07:18:07.430Z,3.53
2019-02-09T07:20:36.776Z,1.70
2019-02-09T07:23:06.507Z,1.77
2019-02-09T07:25:36.067Z,3.10
2019-02-09T07:28:05.803Z,2.80
2019-02-09T07:30:35.405Z,1.70
2019-02-09T07:33:05.839Z,2.17
2019-02-09T07:35:35.091Z,1.73
2019-02-09T07:38:04.351Z,1.83
2019-02-09T07:40:33.655Z,3.10
2019-02-09T07:43:02.971Z,3.03
2019-02-09T07:45:32.306Z,1.27
2019-02-09T07:48:01.454Z,1.67
2019-02-09T07:50:30.836Z,2.47
2019-02-09T07:53:00.656Z,5.83
2019-02-09T07:55:29.900Z,2.30
2019-02-09T07:57:59.155Z,3.67
2019-02-09T08:00:29.180Z,1.73
2019-02-09T08:02:58.408Z,1.87
2019-02-09T08:05:29.411Z,2.27
2019-02-09T08:07:58.722Z,1.23
2019-02-09T08:10:29.687Z,2.20
2019-02-09T08:12:59.186Z,3.17
2019-02-09T08:15:29.595Z,5.50
2019-02-09T08:17:59.319Z,2.47
2019-02-09T08:20:29.064Z,1.83
2019-02-09T08:22:59.933Z,1.43
2019-02-09T08:25:30.951Z,2.47
2019-02-09T08:28:01.739Z,1.37
2019-02-09T08:30:36.257Z,2.17
2019-02-09T08:33:05.890Z,5.00
2019-02-09T08:35:35.249Z,1.50
2019-02-09T08:38:04.785Z,1.50
2019-02-09T08:40:34.207Z,2.40
2019-02-09T08:43:03.345Z,2.43
2019-02-09T08:45:32.539Z,1.90
2019-02-09T08:48:01.862Z,2.50
2019-02-09T08:50:33.674Z,1.50
2019-02-09T08:53:02.901Z,2.80
2019-02-09T08:55:32.106Z,1.83
2019-02-09T08:58:01.448Z,2.13
2019-02-09T09:00:32.036Z,3.17
2019-02-09T09:03:01.386Z,3.20
2019-02-09T09:05:30.824Z,5.03
2019-02-09T09:08:00.307Z,6.53
2019-02-09T09:10:29.737Z,2.70
2019-02-09T09:12:59.062Z,5.47
2019-02-09T09:15:31.185Z,2.70
2019-02-09T09:18:00.446Z,1.63
2019-02-09T09:20:32.701Z,1.93
2019-02-09T09:23:01.952Z,5.17
2019-02-09T09:25:31.212Z,2.83
2019-02-09T09:28:00.540Z,3.07
2019-02-09T09:30:30.012Z,2.53
2019-02-09T09:32:59.311Z,1.73
2019-02-09T09:35:28.651Z,1.77
2019-02-09T09:37:57.955Z,2.33
2019-02-09T09:40:32.462Z,2.27
2019-02-09T09:43:01.811Z,3.47
2019-02-09T09:45:32.937Z,2.50
2019-02-09T09:48:02.533Z,2.57
2019-02-09T09:50:31.839Z,2.67
2019-02-09T09:53:01.122Z,4.47
2019-02-09T09:55:30.419Z,2.97
2019-02-09T09:57:59.749Z,2.47
2019-02-09T10:00:29.081Z,2.80
2019-02-09T10:02:58.409Z,1.63
2019-02-09T10:05:27.826Z,2.47
2019-02-09T10:07:57.193Z,3.23
2019-02-09T10:10:27.359Z,2.27
2019-02-09T10:12:56.639Z,2.47
2019-02-09T10:15:26.434Z,2.30
2019-02-09T10:17:56.879Z,5.07
2019-02-09T10:20:26.464Z,2.87
2019-02-09T10:22:55.788Z,1.83
2019-02-09T10:25:25.003Z,3.57
2019-02-09T10:27:54.704Z,3.90
2019-02-09T10:30:25.641Z,3.07
2019-02-09T10:32:54.949Z,4.87
2019-02-09T10:35:24.491Z,3.77
2019-02-09T10:37:53.825Z,2.33
2019-02-09T10:40:27.657Z,3.47
2019-02-09T10:43:00.694Z,2.27
2019-02-09T10:45:30.273Z,2.23
2019-02-09T10:48:00.091Z,3.03
2019-02-09T10:50:31.262Z,3.37
2019-02-09T10:53:00.468Z,4.10
2019-02-09T10:55:29.753Z,4.33
2019-02-09T10:57:58.894Z,9.73
2019-02-09T11:00:30.865Z,3.13
2019-02-09T11:03:00.055Z,4.33
2019-02-09T11:05:29.360Z,4.23
2019-02-09T11:07:58.673Z,6.13
2019-02-09T11:10:28.043Z,3.63
2019-02-09T11:12:58.401Z,6.60
2019-02-09T11:15:27.643Z,4.13
2019-02-09T11:17:56.815Z,4.20
2019-02-09T11:20:26.183Z,4.73
2019-02-09T11:22:55.560Z,5.13
2019-02-09T11:25:24.926Z,3.27
2019-02-09T11:27:54.199Z,3.37
2019-02-09T11:30:23.530Z,3.47
2019-02-09T11:33:00.538Z,4.47
2019-02-09T11:35:23.819Z,4.57
2019-02-09T11:37:53.158Z,4.03
2019-02-09T11:40:22.739Z,5.47
2019-02-09T11:42:52.313Z,3.23
2019-02-09T11:45:23.797Z,4.60
2019-02-09T11:47:52.930Z,5.17
2019-02-09T11:50:22.206Z,3.73
2019-02-09T11:52:51.455Z,3.70
2019-02-09T11:55:20.972Z,5.57
2019-02-09T11:57:50.515Z,6.03
2019-02-09T12:00:25.127Z,3.33
2019-02-09T12:03:02.142Z,5.23
2019-02-09T12:05:25.459Z,5.07
2019-02-09T12:07:54.692Z,3.87
2019-02-09T12:10:24.005Z,4.87
2019-02-09T12:12:53.246Z,4.03
2019-02-09T12:15:27.440Z,4.83
2019-02-09T12:17:56.606Z,3.07
2019-02-09T12:20:25.837Z,3.73
2019-02-09T12:22:55.044Z,3.47
2019-02-09T12:25:26.658Z,2.47
2019-02-09T12:27:55.863Z,6.47
2019-02-09T12:30:26.960Z,3.23
2019-02-09T12:32:56.319Z,5.17
2019-02-09T12:35:25.629Z,4.73
2019-02-09T12:37:54.923Z,6.13
2019-02-09T12:40:28.654Z,3.40
2019-02-09T12:42:57.814Z,6.03
2019-02-09T12:45:27.609Z,5.53
2019-02-09T12:47:56.891Z,4.80
2019-02-09T12:50:26.221Z,3.60
2019-02-09T12:52:58.458Z,7.33
2019-02-09T12:55:28.172Z,3.60
2019-02-09T12:58:03.007Z,5.23
2019-02-09T13:00:33.704Z,4.77
2019-02-09T13:03:17.895Z,4.27
2019-02-09T13:05:47.088Z,3.03
2019-02-09T13:11:10.219Z,3.87
2019-02-09T13:13:51.468Z,3.80
2019-02-09T13:16:32.306Z,2.87
2019-02-09T13:19:12.979Z,5.10
2019-02-09T13:21:53.743Z,4.00
2019-02-09T13:24:34.642Z,3.80
2019-02-09T13:27:15.512Z,4.03
2019-02-09T13:29:56.087Z,3.17
2019-02-09T13:32:36.472Z,6.47
2019-02-09T13:35:17.227Z,4.53
2019-02-09T13:37:58.098Z,4.53
2019-02-09T13:40:38.887Z,7.40
2019-02-09T13:43:19.871Z,3.73
2019-02-09T13:46:00.963Z,9.80
2019-02-09T13:48:41.732Z,5.97
2019-02-09T13:51:10.988Z,3.13
2019-02-09T13:53:59.190Z,3.87
2019-02-09T13:56:47.466Z,4.87
2019-02-09T13:59:28.552Z,6.40
2019-02-09T14:01:57.736Z,4.37
2019-02-09T14:04:45.938Z,5.70
2019-02-09T14:07:34.161Z,3.77
2019-02-09T14:10:15.135Z,4.33
2019-02-09T14:12:55.939Z,2.03
2019-02-09T14:15:36.979Z,4.27
2019-02-09T14:18:16.449Z,4.33
2019-02-09T14:20:57.674Z,7.33
2019-02-09T14:23:39.146Z,5.37
2019-02-09T14:26:08.436Z,3.43
2019-02-09T14:28:56.728Z,5.40
2019-02-09T14:31:44.922Z,4.90
2019-02-09T14:34:26.255Z,6.07
2019-02-09T14:36:55.485Z,6.60
2019-02-09T14:39:43.786Z,6.67
2019-02-09T14:42:32.072Z,4.50
2019-02-09T14:45:12.779Z,6.60
2019-02-09T14:47:53.508Z,4.47
2019-02-09T14:50:34.322Z,4.97
2019-02-09T14:53:15.771Z,3.30
2019-02-09T14:55:57.062Z,4.43
2019-02-09T14:58:38.198Z,8.03
2019-02-09T15:01:18.764Z,2.90
2019-02-09T15:03:47.927Z,5.00
2019-02-09T15:06:36.234Z,5.93
2019-02-09T15:09:24.511Z,3.60
2019-02-09T15:12:05.002Z,3.73
2019-02-09T15:14:45.731Z,3.80
2019-02-09T15:17:29.800Z,7.37
2019-02-09T15:20:11.374Z,5.43
2019-02-09T15:22:52.212Z,5.20
2019-02-09T15:25:34.939Z,2.50
2019-02-09T15:28:16.478Z,4.93
2019-02-09T15:30:57.407Z,3.47
2019-02-09T15:33:38.299Z,4.90
2019-02-09T15:36:19.348Z,4.43
2019-02-09T15:39:00.347Z,4.90
2019-02-09T15:41:40.783Z,4.30
2019-02-09T15:44:20.468Z,3.03
2019-02-09T15:47:01.702Z,3.40
2019-02-09T15:49:42.655Z,6.23
2019-02-09T15:55:02.033Z,3.60
2019-02-09T15:57:42.793Z,3.70
2019-02-09T16:00:23.231Z,3.70
2019-02-09T16:03:03.788Z,6.07
2019-02-09T16:05:44.500Z,5.40
2019-02-09T16:08:25.319Z,7.13
2019-02-09T16:11:06.531Z,5.50
2019-02-09T16:13:46.980Z,4.53
2019-02-09T16:16:28.311Z,5.87
2019-02-09T16:19:09.050Z,6.07
2019-02-09T16:21:49.894Z,2.00
2019-02-09T16:24:30.710Z,3.87
2019-02-09T16:27:11.230Z,5.63
2019-02-09T16:29:51.743Z,5.07
2019-02-09T16:32:32.660Z,4.63
2019-02-09T16:35:13.153Z,4.53
2019-02-09T16:37:54.088Z,13.23
2019-02-09T16:40:35.003Z,5.57
2019-02-09T16:43:16.263Z,3.80
2019-02-09T16:45:56.760Z,6.87
2019-02-09T16:48:37.564Z,8.60
2019-02-09T16:51:18.461Z,6.00
2019-02-09T16:53:59.164Z,4.67
2019-02-09T16:56:39.918Z,4.67
2019-02-09T16:59:21.279Z,5.00
2019-02-09T17:02:02.295Z,5.63
2019-02-09T17:04:42.627Z,7.30
2019-02-09T17:07:23.367Z,3.97
2019-02-09T17:10:05.215Z,4.83
2019-02-09T17:12:46.307Z,5.93
2019-02-09T17:15:26.981Z,4.50
2019-02-09T17:18:07.783Z,6.70
2019-02-09T17:20:48.802Z,7.33
2019-02-09T17:23:29.344Z,5.27
2019-02-09T17:26:10.577Z,7.13
2019-02-09T17:28:51.124Z,8.20
2019-02-09T17:31:32.214Z,6.87
2019-02-09T17:34:12.983Z,4.90
2019-02-09T17:36:53.915Z,8.20
2019-02-09T17:39:34.390Z,5.40
2019-02-09T17:42:14.987Z,5.73
2019-02-09T17:44:55.692Z,7.33
2019-02-09T17:47:36.707Z,5.57
2019-02-09T17:50:17.270Z,6.10
2019-02-09T17:52:57.878Z,4.00
2019-02-09T17:58:17.671Z,4.67
2019-02-09T18:01:02.011Z,3.67
2019-02-09T18:03:43.299Z,5.77
2019-02-09T18:06:24.152Z,5.63
2019-02-09T18:09:04.826Z,5.30
2019-02-09T18:11:46.171Z,4.97
2019-02-09T18:14:26.932Z,3.53
2019-02-09T18:17:07.588Z,7.43
2019-02-09T18:19:49.046Z,5.47
2019-02-09T18:22:30.263Z,5.80
2019-02-09T18:25:10.938Z,5.90
2019-02-09T18:27:51.808Z,4.57
2019-02-09T18:30:32.605Z,6.63
2019-02-09T18:33:14.716Z,5.10
2019-02-09T18:35:55.449Z,3.90
2019-02-09T18:38:36.827Z,4.83
2019-02-09T18:41:17.779Z,3.57
2019-02-09T18:43:58.903Z,4.27
2019-02-09T18:46:39.686Z,5.73
2019-02-09T18:49:20.378Z,5.63
2019-02-09T18:52:01.197Z,6.10
2019-02-09T18:54:42.258Z,4.20
2019-02-09T18:57:22.680Z,5.40
2019-02-09T19:00:03.653Z,6.73
2019-02-09T19:02:44.795Z,5.33
2019-02-09T19:05:25.591Z,5.93
2019-02-09T19:08:06.802Z,7.77
2019-02-09T19:10:48.308Z,9.53
2019-02-09T19:13:30.086Z,8.17
2019-02-09T19:16:10.686Z,11.20
2019-02-09T19:18:51.954Z,9.47
2019-02-09T19:21:32.805Z,12.57
2019-02-09T19:24:14.533Z,11.33
2019-02-09T19:26:56.441Z,13.23
2019-02-09T19:29:37.514Z,11.27
2019-02-09T19:32:18.704Z,10.73
2019-02-09T19:34:59.248Z,11.47
2019-02-09T19:37:40.236Z,10.03
2019-02-09T19:40:21.430Z,9.07
2019-02-09T19:43:02.502Z,8.33
2019-02-09T19:45:43.388Z,6.77
2019-02-09T19:48:24.570Z,5.57
2019-02-09T19:51:05.023Z,5.90
2019-02-09T19:53:45.682Z,4.60
2019-02-09T19:56:26.404Z,4.53
2019-02-09T19:59:07.593Z,4.60
2019-02-09T20:01:48.451Z,4.80
2019-02-09T20:04:29.884Z,5.87
2019-02-09T20:07:11.086Z,5.40
2019-02-09T20:09:52.291Z,6.60
2019-02-09T20:12:33.104Z,3.53
2019-02-09T20:15:13.984Z,6.10
2019-02-09T20:17:54.817Z,2.60
2019-02-09T20:20:35.738Z,3.60
2019-02-09T20:23:16.114Z,4.07
2019-02-09T20:25:56.931Z,6.70
2019-02-09T20:28:37.600Z,3.97
2019-02-09T20:31:18.583Z,5.43
2019-02-09T20:33:59.600Z,6.90
2019-02-09T20:36:40.323Z,4.60
2019-02-09T20:39:20.958Z,4.37
2019-02-09T20:42:01.943Z,7.87
2019-02-09T20:44:42.921Z,5.87
2019-02-09T20:47:24.179Z,4.53
2019-02-09T20:50:05.245Z,6.37
2019-02-09T20:52:46.240Z,3.53
2019-02-09T20:55:27.167Z,9.73
2019-02-09T20:58:08.179Z,8.73
2019-02-09T21:00:49.086Z,10.97
2019-02-09T21:03:29.809Z,12.20
2019-02-09T21:06:10.707Z,9.47
2019-02-09T21:08:51.453Z,7.80
2019-02-09T21:11:31.840Z,5.77
2019-02-09T21:14:12.651Z,6.70
2019-02-09T21:16:53.974Z,6.10
2019-02-09T21:19:35.318Z,3.80
2019-02-09T21:22:16.022Z,5.90
2019-02-09T21:24:56.602Z,5.30
2019-02-09T21:27:37.637Z,3.40
2019-02-09T21:30:18.477Z,5.27
2019-02-09T21:32:59.242Z,5.80
2019-02-09T21:35:43.976Z,4.13
2019-02-09T21:38:23.009Z,6.37
2019-02-09T21:41:03.774Z,7.67
2019-02-09T21:43:44.512Z,6.87
2019-02-09T21:46:26.873Z,5.00
2019-02-09T21:49:07.805Z,5.97
2019-02-09T21:51:48.959Z,5.77
2019-02-09T21:54:29.794Z,5.97
2019-02-09T21:57:10.614Z,6.87
2019-02-09T21:59:51.353Z,5.30
2019-02-09T22:02:31.852Z,7.63
2019-02-09T22:05:12.713Z,5.73
2019-02-09T22:07:53.562Z,6.10
2019-02-09T22:10:34.348Z,7.60
2019-02-09T22:13:14.846Z,5.77
2019-02-09T22:15:55.640Z,6.47
2019-02-09T22:18:36.576Z,5.60
2019-02-09T22:21:05.946Z,6.70
2019-02-09T22:23:54.237Z,4.13
2019-02-09T22:26:42.505Z,5.27
2019-02-09T22:29:23.288Z,6.80
2019-02-09T22:32:04.006Z,6.50
2019-02-09T22:34:44.600Z,7.57
2019-02-09T22:37:25.727Z,6.13
2019-02-09T22:40:07.170Z,6.00
2019-02-09T22:42:47.879Z,6.63
2019-02-09T22:45:29.042Z,6.93
2019-02-09T22:48:09.898Z,6.67
2019-02-09T22:50:51.319Z,5.53
2019-02-09T22:53:32.275Z,6.30
2019-02-09T22:56:13.276Z,6.43
2019-02-09T22:58:52.943Z,7.17
2019-02-09T23:01:34.295Z,4.70
2019-02-09T23:04:15.399Z,5.40
2019-02-09T23:06:57.067Z,8.83
2019-02-09T23:09:37.722Z,12.00
2019-02-09T23:12:18.239Z,7.90
2019-02-09T23:14:58.975Z,7.93
2019-02-09T23:17:39.834Z,7.57
2019-02-09T23:20:21.043Z,14.40
2019-02-09T23:23:01.500Z,20.03
2019-02-09T23:28:22.744Z,37.77
2019-02-09T23:33:48.466Z,13.17
2019-02-09T23:36:28.098Z,25.87
2019-02-09T23:39:08.744Z,43.17
2019-02-09T23:41:50.019Z,17.90
2019-02-09T23:44:30.772Z,18.33
2019-02-09T23:47:11.619Z,16.57
2019-02-09T23:49:52.294Z,21.50
2019-02-09T23:52:33.506Z,12.07
2019-02-09T23:55:14.859Z,16.10
2019-02-09T23:57:55.631Z,9.53
